Skip Navigation Links
NOAA logo - Click to go to the NOAA homepage
NOAA's National Weather Service
Alaska Aviation Weather Unit
  NWS logo - Click to go to the NWS homepage
Left Navbar Graphic     09 AKDT = 17 GMT

   
NOAA is celebrating 200 years of science, service, and stewardship. Visit the NOAA 200th celebration Web site to learn more.
USA.gov is the U.S. Government's official Web portal to all Federal, state and local government Web resources and services.
Facebook
NWS on Facebook

Important Change Regarding the AAWU Web Presence

 

Over the last several months, the AAWU has been working to navigate its webpages to a nationally supported server. Security, as well as other needs, have necessitated the change.  In the process, we have made an effort to enhance the functionality of our website, as well as some of our products. As of June 20, 2017, aawu.arh.noaa.gov will be discontinued. The new AAWU web address is weather.gov/aawu. It is now live and will run in-parallel with the old site until it is discontinued. Please send any feedback or questions regarding the new webpages to nws.ar.aawu.webauthors@noaa.gov.  Thank you for your patience during this time of transition.
AAWU Home :: Display TAF Add Bookmark
SPECI PALG 271124Z AUTO 08003KT 10SM -RA BKN025 BKN032 OVC060 03/02
     A2992 RMK AO2 RAB24 P0000=

SPECI PALG 271138Z AUTO 07006KT 10SM SCT027 BKN060 OVC080 03/02 A2992
     RMK AO2 RAB24RAEMM P0000 PWINO=

METAR PALG 271156Z AUTO 00000KT 10SM SCT031 BKN065 OVC080 03/02 A2992
     RMK AO2 SLP299 71000 10070 20030 52003 PWINO FZRANO TSNO
     RVRNO=

METAR PALG 271256Z AUTO 07005KT 10SM SCT050 OVC065 03/02 A2992 RMK AO2
     SLP299 PWINO FZRANO TSNO RVRNO=

SPECI PALG 271312Z AUTO 07004KT 9SM SCT022 BKN029 OVC060 03/02 A2992 RMK
     AO2 PWINO=

METAR PALG 271356Z AUTO 07003KT 10SM BKN020 BKN027 OVC055 03/02 A2992
     RMK AO2 SLP137 T00280022 PWINO=

SPECI PALG 271423Z AUTO 06003KT 10SM SCT020 BKN034 OVC055 03/02 A2992
     RMK AO2 PWINO=

SPECI PALG 271454Z AUTO 08004KT 10SM FEW006 BKN048 OVC055 03/02 A2992
     RMK AO2 PWINO=

METAR PALG 271456Z AUTO 07004KT 10SM FEW006 OVC048 03/02 A2992 RMK
 AO2 SLP137 T00280022 54000 PWINO=

SPECI PALG 271533Z AUTO 08003KT 10SM FEW009 BKN050 OVC060 03/02 A2992
     RMK AO2 PWINO=

METAR PALG 271556Z AUTO VRB03KT 10SM FEW008 BKN041 OVC049 03/02 A2992
     RMK AO2 SLP299 PWINO FZRANO TSNO RVRNO=

SPECI PALG 271616Z AUTO 08003KT 7SM BKN008 OVC017 03/03 A2992 RMK
 AO2 PWINO=

METAR PALG 271656Z AUTO 10003KT 10SM OVC006 03/03 A2992 RMK AO2 SLP299
     P0001 PWINO FZRANO TSNO RVRNO=

SPECI PALG 271715Z AUTO 00000KT 10SM SCT006 OVC012 04/03 A2992 RMK AO2
     PWINO=


NOAA's National Weather Service
Alaska Aviation Weather Unit
6930 Sand Lake Road
Anchorage, AK 99502-1845
Disclaimer
Credits
Glossary
Privacy Policy
About Us
Career Opportunities
Contact AAWU Internet Services Site last modified: April, 17th 2012